Time;durP1;ratioP1;P1;durP2;ratioP2;P2;SDS_P1;SDS_P2;PMS_P1;PMS_P2;Temp;Humidity;BMP_temperature;BMP_pressure;BME280_temperature;BME280_humidity;BME280_pressure;Samples;Min_cycle;Max_cycle;Signal;HPM_P1;HPM_P2
2022/03/15 00:00:25;;;;;;;;;5.00;3.25;;;;;20.03;33.69;101958.44;5076498;28;45658;-54
2022/03/15 00:02:50;;;;;;;;;2.50;2.50;;;;;20.02;33.92;101959.34;5076335;28;47400;-53
2022/03/15 00:05:17;;;;;;;;;2.75;2.00;;;;;20.01;34.08;101953.22;5076335;28;45309;-53
2022/03/15 00:07:44;;;;;;;;;4.00;3.00;;;;;19.99;34.28;101948.94;5076631;28;45192;-51
2022/03/15 00:10:12;;;;;;;;;2.75;2.75;;;;;19.99;34.17;101952.44;5077016;28;45520;-55
2022/03/15 00:12:41;;;;;;;;;3.00;3.00;;;;;19.97;34.04;101943.75;5077167;28;46989;-55
2022/03/15 00:15:08;;;;;;;;;3.00;3.00;;;;;19.99;34.14;101941.91;5078429;28;45480;-52
2022/03/15 00:17:42;;;;;;;;;4.00;2.00;;;;;20.00;33.70;101945.41;5079942;27;45486;-51
2022/03/15 00:20:10;;;;;;;;;4.50;3.00;;;;;19.97;33.62;101941.09;5080160;28;45473;-50
2022/03/15 00:22:36;;;;;;;;;4.00;2.25;;;;;19.97;33.78;101938.47;5079668;28;45988;-52
2022/03/15 00:25:07;;;;;;;;;4.00;3.00;;;;;19.94;33.89;101930.69;5079628;27;45318;-47
2022/03/15 00:27:33;;;;;;;;;0.00;0.00;;;;;19.95;33.64;101935.03;5078701;28;45328;-49
2022/03/15 00:29:59;;;;;;;;;2.75;2.75;;;;;19.93;33.66;101940.38;5079911;28;45556;-48
2022/03/15 00:32:25;;;;;;;;;2.00;2.00;;;;;19.91;33.83;101931.66;5079387;28;45603;-47
2022/03/15 00:34:51;;;;;;;;;3.25;3.00;;;;;19.89;33.79;101933.47;5079646;27;45446;-49
2022/03/15 00:37:17;;;;;;;;;3.00;3.00;;;;;19.88;34.00;101934.38;5079472;27;45299;-47
2022/03/15 00:39:43;;;;;;;;;2.00;2.00;;;;;19.88;33.88;101939.66;5080006;27;45670;-53
2022/03/15 00:42:08;;;;;;;;;4.00;3.00;;;;;19.87;33.91;101937.09;5078102;28;46921;-47
2022/03/15 00:44:34;;;;;;;;;4.00;4.00;;;;;19.85;34.46;101934.44;5079434;28;45374;-48
2022/03/15 00:46:59;;;;;;;;;3.00;2.00;;;;;19.83;34.31;101931.03;5079480;27;45315;-47
2022/03/15 00:49:26;;;;;;;;;5.25;2.50;;;;;19.84;34.26;101927.50;5079789;28;45329;-51
2022/03/15 00:51:51;;;;;;;;;7.00;2.75;;;;;19.82;33.91;101917.91;5077878;28;48542;-50
2022/03/15 00:54:17;;;;;;;;;5.00;3.50;;;;;19.82;34.21;101912.66;5079449;28;45222;-44
2022/03/15 00:56:42;;;;;;;;;4.00;2.00;;;;;19.82;34.40;101918.78;5078432;28;45277;-45
2022/03/15 00:59:09;;;;;;;;;4.00;4.00;;;;;19.81;34.24;101916.19;5079569;28;45662;-43
2022/03/15 01:01:35;;;;;;;;;2.00;2.00;;;;;19.80;34.21;101919.75;5078847;27;47167;-47
2022/03/15 01:04:01;;;;;;;;;2.00;2.00;;;;;19.77;34.40;101905.81;5079127;27;45333;-44
2022/03/15 01:06:26;;;;;;;;;1.50;1.50;;;;;19.77;33.97;101905.81;5079157;27;45353;-51
2022/03/15 01:08:51;;;;;;;;;1.50;1.50;;;;;19.77;34.54;101903.19;5079299;28;45302;-46
2022/03/15 01:11:17;;;;;;;;;2.00;1.50;;;;;19.76;34.43;101901.47;5079272;27;45348;-51
2022/03/15 01:13:42;;;;;;;;;6.75;3.75;;;;;19.75;34.30;101907.63;5078916;28;45493;-45
2022/03/15 01:16:07;;;;;;;;;1.75;1.50;;;;;19.74;34.70;101899.78;5078606;28;45429;-47
2022/03/15 01:18:34;;;;;;;;;4.00;3.00;;;;;19.73;34.40;101901.56;5079279;27;45631;-48
2022/03/15 01:20:59;;;;;;;;;2.25;1.75;;;;;19.72;34.55;101891.94;5078757;28;46386;-51
2022/03/15 01:23:25;;;;;;;;;1.50;1.50;;;;;19.72;34.38;101894.56;5078764;27;45204;-50
2022/03/15 01:25:50;;;;;;;;;2.00;2.00;;;;;19.70;34.87;101883.25;5078839;27;45207;-56
2022/03/15 01:28:15;;;;;;;;;3.75;3.75;;;;;19.70;34.36;101883.25;5079389;28;45298;-49
2022/03/15 01:30:41;;;;;;;;;3.50;3.00;;;;;19.70;34.29;101883.25;5078564;28;45391;-49
2022/03/15 01:33:06;;;;;;;;;1.75;1.75;;;;;19.68;34.51;101873.69;5078593;28;45187;-50
2022/03/15 01:35:32;;;;;;;;;2.75;2.75;;;;;19.69;34.36;101878.88;5078673;27;45298;-45
2022/03/15 01:37:57;;;;;;;;;2.25;2.00;;;;;19.68;34.49;101871.91;5078835;27;45236;-51
2022/03/15 01:40:23;;;;;;;;;2.25;2.25;;;;;19.67;34.45;101875.47;5078474;27;46442;-49
2022/03/15 01:42:49;;;;;;;;;3.00;3.00;;;;;19.66;34.50;101868.50;5078699;27;45943;-52
2022/03/15 01:45:14;;;;;;;;;3.75;3.00;;;;;19.65;34.61;101851.00;5078760;28;45422;-52
2022/03/15 01:47:42;;;;;;;;;1.75;1.75;;;;;19.65;34.89;101852.75;5078792;27;45380;-50
2022/03/15 01:50:08;;;;;;;;;3.00;3.00;;;;;19.65;34.43;101852.75;5078146;27;46644;-45
2022/03/15 01:52:34;;;;;;;;;3.75;2.75;;;;;19.65;34.82;101852.75;5078441;27;45442;-49
2022/03/15 01:54:59;;;;;;;;;1.00;1.00;;;;;19.62;34.24;101845.84;5078425;27;45391;-51
2022/03/15 01:57:25;;;;;;;;;3.00;3.00;;;;;19.62;34.53;101844.06;5078654;28;45266;-52
2022/03/15 01:59:50;;;;;;;;;3.75;2.50;;;;;19.61;34.77;101836.22;5078200;28;45309;-46
2022/03/15 02:02:15;;;;;;;;;3.50;2.00;;;;;19.59;34.40;101825.78;5078563;27;45275;-51
2022/03/15 02:04:41;;;;;;;;;4.75;3.00;;;;;19.61;34.54;101836.22;5078187;27;45335;-55
2022/03/15 02:07:11;;;;;;;;;2.00;2.00;;;;;19.60;34.85;101829.25;5078314;28;45524;-52
2022/03/15 02:09:37;;;;;;;;;1.25;1.25;;;;;19.59;34.84;101824.91;5078165;28;47098;-47
2022/03/15 02:12:03;;;;;;;;;2.00;2.00;;;;;19.59;34.63;101827.53;5076789;28;45898;-49
2022/03/15 02:14:29;;;;;;;;;2.00;2.00;;;;;19.57;34.96;101821.47;5077806;28;45524;-51
2022/03/15 02:16:55;;;;;;;;;2.50;2.50;;;;;19.59;34.90;101822.28;5077939;28;45414;-53
2022/03/15 02:19:21;;;;;;;;;4.25;2.00;;;;;19.55;34.94;101816.28;5077939;28;45622;-49
2022/03/15 02:21:47;;;;;;;;;3.25;2.00;;;;;19.56;34.88;101818.00;5078104;27;45334;-55
2022/03/15 02:24:12;;;;;;;;;3.00;3.00;;;;;19.55;34.79;101818.06;5077912;28;45251;-50
2022/03/15 02:26:37;;;;;;;;;2.25;2.25;;;;;19.54;35.08;101809.28;5078047;27;45462;-53
2022/03/15 02:29:03;;;;;;;;;2.25;2.00;;;;;19.55;34.65;101805.75;5077662;27;46480;-51
2022/03/15 02:31:29;;;;;;;;;2.50;2.00;;;;;19.55;34.96;101804.91;5077738;28;45308;-53
2022/03/15 02:33:54;;;;;;;;;2.00;2.00;;;;;19.54;35.01;101797.94;5077714;28;45369;-51
2022/03/15 02:36:20;;;;;;;;;3.00;2.00;;;;;19.54;34.79;101795.31;5077704;28;45517;-55
2022/03/15 02:38:46;;;;;;;;;2.00;1.75;;;;;19.53;35.16;101783.06;5077372;28;46974;-47
2022/03/15 02:41:12;;;;;;;;;1.75;1.75;;;;;19.53;35.04;101791.78;5077594;28;45750;-52
2022/03/15 02:43:39;;;;;;;;;4.00;4.00;;;;;19.52;35.08;101782.19;5077471;27;45394;-55
2022/03/15 02:46:04;;;;;;;;;3.75;2.00;;;;;19.53;34.91;101785.69;5077705;28;45300;-53
2022/03/15 02:48:30;;;;;;;;;2.00;2.00;;;;;19.52;35.39;101794.50;5077386;28;46193;-51
2022/03/15 02:50:58;;;;;;;;;3.00;3.00;;;;;19.52;35.34;101791.88;5077076;27;52250;-51
2022/03/15 02:53:24;;;;;;;;;2.00;2.00;;;;;19.52;34.92;101778.72;5077586;28;45473;-50
2022/03/15 02:55:51;;;;;;;;;3.50;2.25;;;;;19.51;34.90;101779.63;5077877;27;45670;-49
2022/03/15 02:58:18;;;;;;;;;2.00;2.00;;;;;19.49;35.39;101770.94;5077196;28;46142;-50
2022/03/15 03:00:43;;;;;;;;;2.00;2.00;;;;;19.50;34.99;101775.28;5076006;28;45755;-46
2022/03/15 03:03:08;;;;;;;;;3.75;2.00;;;;;19.50;35.45;101775.28;5077368;28;45240;-46
2022/03/15 03:05:34;;;;;;;;;2.00;2.00;;;;;19.49;35.08;101769.19;5077394;28;45585;-53
2022/03/15 03:08:04;;;;;;;;;3.25;2.25;;;;;19.49;35.07;101763.03;5077105;28;46249;-50
2022/03/15 03:10:30;;;;;;;;;2.50;2.50;;;;;19.47;35.19;101761.31;5077241;28;45314;-56
2022/03/15 03:12:57;;;;;;;;;3.00;3.00;;;;;19.46;35.51;101759.59;5077281;28;45285;-50
2022/03/15 03:15:22;;;;;;;;;2.75;1.25;;;;;19.46;35.51;101756.97;5077343;28;45599;-54
2022/03/15 03:17:48;;;;;;;;;2.00;2.00;;;;;19.47;35.30;101766.59;5075641;27;47147;-48
2022/03/15 03:20:19;;;;;;;;;3.50;3.00;;;;;19.46;35.19;101762.22;5076999;28;45454;-52
2022/03/15 03:22:46;;;;;;;;;3.00;2.00;;;;;19.47;35.50;101766.59;5077021;28;45410;-51
2022/03/15 03:25:12;;;;;;;;;2.25;2.25;;;;;19.46;35.64;101758.75;5077195;28;45554;-51
2022/03/15 03:27:37;;;;;;;;;2.00;2.00;;;;;19.45;35.39;101757.91;5076675;27;46374;-52
2022/03/15 03:30:03;;;;;;;;;1.50;1.50;;;;;19.46;35.84;101758.75;5076718;28;45386;-49
2022/03/15 03:32:29;;;;;;;;;2.00;2.00;;;;;19.44;35.38;101755.31;5077007;27;45729;-55
2022/03/15 03:34:56;;;;;;;;;4.00;2.00;;;;;19.44;35.76;101755.31;5076870;28;45604;-50
2022/03/15 03:37:22;;;;;;;;;1.00;1.00;;;;;19.44;35.48;101753.56;5076913;27;46185;-51
2022/03/15 03:39:47;;;;;;;;;2.00;2.00;;;;;19.44;35.44;101750.06;5076559;28;45333;-52
2022/03/15 03:42:14;;;;;;;;;3.00;3.00;;;;;19.44;35.60;101752.69;5076653;28;46301;-48
2022/03/15 03:44:42;;;;;;;;;4.25;3.00;;;;;19.43;35.66;101753.59;5076991;28;46128;-46
2022/03/15 03:47:07;;;;;;;;;3.00;2.00;;;;;19.43;35.66;101765.00;5075265;28;46985;-49
2022/03/15 03:49:33;;;;;;;;;2.00;2.00;;;;;19.41;35.69;101753.66;5076475;28;45352;-51
2022/03/15 03:51:59;;;;;;;;;2.50;2.00;;;;;19.42;35.50;101750.13;5076618;28;45623;-52
2022/03/15 03:54:25;;;;;;;;;3.00;3.00;;;;;19.42;36.06;101747.50;5076724;27;45185;-53
2022/03/15 03:56:51;;;;;;;;;4.00;3.00;;;;;19.41;35.89;101744.91;5076639;28;45346;-50
2022/03/15 03:59:17;;;;;;;;;1.00;1.00;;;;;19.41;35.66;101748.41;5076509;28;45813;-54
2022/03/15 04:01:43;;;;;;;;;3.00;2.00;;;;;19.40;36.05;101749.31;5076572;28;45353;-54
2022/03/15 04:04:10;;;;;;;;;2.00;2.00;;;;;19.41;36.03;101744.91;5076728;28;45410;-45
2022/03/15 04:06:36;;;;;;;;;2.50;2.50;;;;;19.41;36.11;101739.66;5076177;28;46060;-45
2022/03/15 04:09:03;;;;;;;;;1.25;1.25;;;;;19.39;36.02;101737.09;5076351;28;45274;-49
2022/03/15 04:11:31;;;;;;;;;2.00;2.00;;;;;19.38;36.07;101727.47;5076538;28;45335;-50
2022/03/15 04:13:59;;;;;;;;;1.00;1.00;;;;;19.39;35.92;101731.84;5076632;28;45510;-49
2022/03/15 04:16:27;;;;;;;;;1.50;1.50;;;;;19.38;36.25;101727.47;5076409;28;46390;-49
2022/03/15 04:18:53;;;;;;;;;2.50;2.50;;;;;19.38;36.24;101718.75;5076529;27;45353;-48
2022/03/15 04:21:18;;;;;;;;;2.75;2.75;;;;;19.38;36.12;101724.84;5076498;27;45366;-54
2022/03/15 04:23:45;;;;;;;;;2.25;2.25;;;;;19.38;36.16;101716.13;5075322;28;45388;-49
2022/03/15 04:26:10;;;;;;;;;2.50;1.25;;;;;19.38;36.28;101714.34;5076137;28;46401;-48
2022/03/15 04:28:36;;;;;;;;;1.25;1.00;;;;;19.38;36.42;101718.75;5074948;27;45363;-48
2022/03/15 04:31:01;;;;;;;;;3.00;3.00;;;;;19.36;36.67;101716.16;5076224;27;45304;-51
2022/03/15 04:33:27;;;;;;;;;2.00;2.00;;;;;19.37;36.53;101717.88;5058365;28;46568;-47
2022/03/15 04:35:52;;;;;;;;;1.25;1.25;;;;;19.37;36.51;101707.38;5076360;28;45253;-53
2022/03/15 04:38:17;;;;;;;;;3.25;2.00;;;;;19.35;36.27;101711.81;5075958;28;45455;-53
2022/03/15 04:40:43;;;;;;;;;3.50;2.00;;;;;19.37;36.65;101711.78;5076192;28;45366;-47
2022/03/15 04:43:08;;;;;;;;;4.00;2.75;;;;;19.35;36.68;101709.19;5076303;27;45588;-54
2022/03/15 04:45:33;;;;;;;;;3.50;3.50;;;;;19.35;36.73;101705.72;5075755;28;50580;-46
2022/03/15 04:47:59;;;;;;;;;2.00;2.00;;;;;19.36;36.21;101700.38;5075837;28;45334;-47
2022/03/15 04:50:24;;;;;;;;;2.25;2.25;;;;;19.35;36.45;101703.94;5076405;28;45384;-46
2022/03/15 04:52:50;;;;;;;;;3.00;3.00;;;;;19.34;36.52;101707.50;5076018;27;45306;-47
2022/03/15 04:55:15;;;;;;;;;2.00;2.00;;;;;19.34;36.77;101712.75;5075477;27;46495;-50
2022/03/15 04:57:42;;;;;;;;;2.75;2.00;;;;;19.32;36.42;101709.31;5075625;28;45528;-49
2022/03/15 05:00:09;;;;;;;;;2.25;2.25;;;;;19.33;36.65;101705.78;5078949;27;45272;-44
2022/03/15 05:02:40;;;;;;;;;3.00;2.00;;;;;19.35;36.50;101701.31;5079467;27;45475;-49
2022/03/15 05:05:06;;;;;;;;;3.00;1.75;;;;;19.34;36.98;101702.25;5078927;28;47021;-50
2022/03/15 05:07:32;;;;;;;;;2.00;2.00;;;;;19.34;36.95;101696.09;5079027;27;45470;-52
2022/03/15 05:12:45;;;;;;;;;2.00;2.00;;;;;19.33;36.91;101712.78;5079445;28;45360;-49
2022/03/15 05:15:11;;;;;;;;;2.00;2.00;;;;;19.29;37.03;101699.75;5078702;28;46089;-54
2022/03/15 05:17:37;;;;;;;;;3.00;3.00;;;;;19.28;37.38;101705.06;5079041;28;45244;-50
2022/03/15 05:20:05;;;;;;;;;2.25;2.00;;;;;19.25;37.46;101706.06;5077772;27;45361;-45
2022/03/15 05:22:32;;;;;;;;;3.00;3.00;;;;;19.22;37.51;101705.31;5079212;28;45399;-46
2022/03/15 05:24:57;;;;;;;;;3.75;3.00;;;;;19.20;37.68;101699.25;5079067;27;46671;-54
2022/03/15 05:27:23;;;;;;;;;4.00;2.00;;;;;19.16;38.10;101699.34;5078758;28;45485;-50
2022/03/15 05:29:48;;;;;;;;;3.50;3.50;;;;;19.15;38.02;101697.63;5077773;28;45312;-52
2022/03/15 05:32:14;;;;;;;;;3.00;3.00;;;;;19.14;38.15;101703.78;5079118;27;45308;-48
2022/03/15 05:34:39;;;;;;;;;3.00;3.00;;;;;19.12;38.00;101703.00;5078557;27;45272;-52
2022/03/15 05:37:06;;;;;;;;;3.00;3.00;;;;;19.11;38.31;101703.94;5077627;27;45446;-49
2022/03/15 05:39:32;;;;;;;;;3.00;3.00;;;;;19.11;38.73;101710.94;5078967;27;45408;-52
2022/03/15 05:41:58;;;;;;;;;2.50;2.25;;;;;19.10;38.32;101704.84;5079431;27;45251;-50
2022/03/15 05:44:24;;;;;;;;;5.00;3.00;;;;;19.09;38.88;101704.88;5078573;27;46060;-48
2022/03/15 05:46:50;;;;;;;;;3.25;3.25;;;;;19.08;38.70;101701.41;5078827;27;45383;-54
2022/03/15 05:49:16;;;;;;;;;5.25;3.00;;;;;19.07;38.73;101699.69;5079289;27;46099;-54
2022/03/15 05:51:42;;;;;;;;;3.75;3.00;;;;;19.06;38.92;101707.63;5077384;27;45550;-49
2022/03/15 05:54:08;;;;;;;;;2.00;2.00;;;;;19.07;39.04;101710.19;5078314;28;45385;-52
2022/03/15 05:56:34;;;;;;;;;3.75;3.75;;;;;19.05;38.85;101712.00;5078257;28;45477;-54
2022/03/15 05:58:59;;;;;;;;;3.00;3.00;;;;;19.07;39.05;101711.97;5077508;28;45330;-52
2022/03/15 06:01:24;;;;;;;;;5.75;4.00;;;;;19.06;39.18;101712.88;5078765;27;45588;-51
2022/03/15 06:03:50;;;;;;;;;3.00;2.75;;;;;19.05;39.19;101706.75;5078144;28;46530;-50
2022/03/15 06:06:15;;;;;;;;;3.75;3.00;;;;;19.05;39.13;101706.75;5078221;27;45350;-49
2022/03/15 06:08:41;;;;;;;;;3.00;3.00;;;;;19.05;39.16;101716.41;5078533;28;45365;-54
2022/03/15 06:11:07;;;;;;;;;3.00;3.00;;;;;19.04;39.17;101715.53;5077616;28;45526;-53
2022/03/15 06:13:33;;;;;;;;;3.00;3.00;;;;;19.04;39.23;101715.53;5078286;27;45497;-54
2022/03/15 06:15:58;;;;;;;;;3.75;3.75;;;;;19.04;39.71;101723.44;5078206;27;45170;-55
2022/03/15 06:18:23;;;;;;;;;3.00;3.00;;;;;19.03;39.45;101716.44;5078210;27;45225;-54
2022/03/15 06:20:49;;;;;;;;;3.50;3.00;;;;;19.04;39.58;101719.97;5078428;28;45461;-52
2022/03/15 06:23:20;;;;;;;;;2.25;2.25;;;;;19.03;39.78;101712.97;5078005;28;45422;-54
2022/03/15 06:25:45;;;;;;;;;4.00;3.00;;;;;19.03;39.40;101712.97;5077912;27;45862;-52
2022/03/15 06:28:10;;;;;;;;;4.50;3.25;;;;;19.04;39.81;101715.53;5078037;28;45412;-50
2022/03/15 06:30:36;;;;;;;;;4.00;4.00;;;;;19.04;40.00;101717.31;5078176;28;45350;-52
2022/03/15 06:33:03;;;;;;;;;5.00;3.00;;;;;19.04;39.93;101715.53;5078085;28;46500;-50
2022/03/15 06:35:29;;;;;;;;;3.00;3.00;;;;;19.03;39.72;101718.22;5077988;28;45398;-56
2022/03/15 06:37:55;;;;;;;;;4.00;3.00;;;;;19.03;40.07;101718.22;5077865;28;45392;-53
2022/03/15 06:40:23;;;;;;;;;3.75;3.75;;;;;19.01;39.80;101713.03;5076853;28;45459;-55
2022/03/15 06:42:48;;;;;;;;;3.25;3.25;;;;;19.00;40.00;101712.16;5077558;28;47017;-54
2022/03/15 06:45:15;;;;;;;;;3.00;3.00;;;;;19.00;40.20;101714.78;5077736;28;45259;-56
2022/03/15 06:47:40;;;;;;;;;7.25;3.75;;;;;19.00;40.41;101713.94;5076447;28;45399;-54
2022/03/15 06:50:08;;;;;;;;;4.00;4.00;;;;;18.98;40.03;101715.78;5077938;27;45649;-54
2022/03/15 06:52:33;;;;;;;;;4.25;4.00;;;;;18.97;40.01;101711.44;5077753;28;47187;-49
2022/03/15 06:54:59;;;;;;;;;4.75;3.75;;;;;18.98;40.20;101715.78;5077560;27;45498;-52
2022/03/15 06:57:24;;;;;;;;;3.25;3.25;;;;;18.97;40.29;101719.31;5077677;28;45297;-54
2022/03/15 06:59:50;;;;;;;;;4.00;4.00;;;;;18.96;40.25;101714.97;5077630;27;45318;-49
2022/03/15 07:02:15;;;;;;;;;5.50;4.50;;;;;18.95;40.27;101705.38;5077193;27;45943;-52
2022/03/15 07:04:41;;;;;;;;;4.25;4.00;;;;;18.95;40.32;101700.97;5077210;27;45433;-53
2022/03/15 07:07:07;;;;;;;;;4.00;4.00;;;;;18.95;40.54;101702.72;5077528;28;45341;-53
2022/03/15 07:09:32;;;;;;;;;7.75;4.75;;;;;18.94;40.55;101698.38;5077900;28;45510;-57
2022/03/15 07:11:58;;;;;;;;;5.00;3.75;;;;;18.94;40.61;101707.16;5077192;28;46395;-51
2022/03/15 07:14:23;;;;;;;;;4.50;3.50;;;;;18.93;40.85;101708.06;5076791;28;45453;-53
2022/03/15 07:16:48;;;;;;;;;5.50;3.00;;;;;18.93;40.87;101707.16;5077235;28;45297;-49
2022/03/15 07:19:14;;;;;;;;;6.50;4.50;;;;;18.95;40.59;101718.50;5077407;28;45491;-56
2022/03/15 07:21:39;;;;;;;;;4.50;4.50;;;;;18.93;40.61;101715.94;5076783;28;45162;-52
2022/03/15 07:24:05;;;;;;;;;4.50;4.00;;;;;18.93;40.69;101713.31;5077196;28;45258;-51
2022/03/15 07:26:32;;;;;;;;;3.75;3.75;;;;;18.94;40.87;101716.78;5077300;28;45514;-50
2022/03/15 07:28:57;;;;;;;;;4.25;4.25;;;;;18.95;40.80;101721.13;5077178;28;45588;-51
2022/03/15 07:31:23;;;;;;;;;6.00;4.25;;;;;18.94;40.78;101719.41;5076817;28;46063;-50
2022/03/15 07:33:48;;;;;;;;;5.50;4.50;;;;;18.91;40.96;101724.72;5076986;28;45393;-50
2022/03/15 07:36:14;;;;;;;;;3.75;3.75;;;;;18.91;41.09;101722.09;5076709;28;45438;-49
2022/03/15 07:38:39;;;;;;;;;9.00;5.00;;;;;18.92;40.88;101726.44;5077069;28;45406;-52
2022/03/15 07:41:05;;;;;;;;;4.75;4.75;;;;;18.92;41.01;101724.69;5077026;28;45456;-51
2022/03/15 07:43:30;;;;;;;;;6.50;5.75;;;;;18.90;40.87;101717.78;5075475;28;46033;-53
2022/03/15 07:45:56;;;;;;;;;6.25;5.00;;;;;18.90;40.87;101708.13;5076909;27;45299;-51
2022/03/15 07:48:21;;;;;;;;;5.75;5.75;;;;;18.89;40.81;101701.16;5076925;28;45434;-51
2022/03/15 07:50:49;;;;;;;;;5.75;5.75;;;;;18.89;41.04;101705.56;5076365;28;45647;-53
2022/03/15 07:53:14;;;;;;;;;5.00;5.00;;;;;18.89;41.04;101705.56;5076563;27;46027;-53
2022/03/15 07:55:40;;;;;;;;;5.25;5.25;;;;;18.89;41.26;101703.78;5076600;28;45373;-52
2022/03/15 07:58:05;;;;;;;;;6.50;6.50;;;;;18.89;41.09;101695.91;5077319;28;45414;-48
2022/03/15 08:00:31;;;;;;;;;7.75;7.75;;;;;18.90;41.04;101704.66;5076492;28;46035;-49
2022/03/15 08:02:56;;;;;;;;;6.00;6.00;;;;;18.90;41.38;101705.50;5076544;28;45311;-49
2022/03/15 08:05:22;;;;;;;;;6.50;5.25;;;;;18.89;41.37;101698.53;5076630;28;45240;-53
2022/03/15 08:07:48;;;;;;;;;4.75;4.75;;;;;18.90;41.48;101692.34;5075541;28;45665;-53
2022/03/15 08:10:13;;;;;;;;;8.00;6.25;;;;;18.90;41.20;101691.50;5076374;28;46031;-47
2022/03/15 08:12:40;;;;;;;;;5.50;5.00;;;;;18.90;41.20;101696.78;5075014;28;45933;-53
2022/03/15 08:15:07;;;;;;;;;7.00;6.00;;;;;18.91;41.38;101711.59;5076479;27;45370;-52
2022/03/15 08:17:34;;;;;;;;;4.25;4.25;;;;;18.90;41.47;101702.88;5076577;28;45398;-56
2022/03/15 08:20:00;;;;;;;;;9.25;6.00;;;;;18.91;41.52;101693.19;5076086;27;45339;-57
2022/03/15 08:22:26;;;;;;;;;6.00;6.00;;;;;18.90;41.29;101692.34;5076188;28;45725;-51
2022/03/15 08:24:51;;;;;;;;;5.00;5.00;;;;;18.92;41.45;101692.28;5074882;28;45265;-53
2022/03/15 08:27:18;;;;;;;;;4.75;4.75;;;;;18.93;41.22;101701.88;5076374;27;45227;-53
2022/03/15 08:29:45;;;;;;;;;6.25;4.25;;;;;18.91;41.25;101685.31;5076108;28;46188;-55
2022/03/15 08:32:11;;;;;;;;;5.25;4.00;;;;;18.93;41.35;101688.75;5076163;28;45326;-56
2022/03/15 08:34:37;;;;;;;;;4.50;4.50;;;;;18.93;41.39;101696.63;5078891;27;45440;-52
2022/03/15 08:37:03;;;;;;;;;3.75;3.75;;;;;18.93;41.54;101696.63;5078669;28;45489;-57
2022/03/15 08:39:28;;;;;;;;;7.00;6.00;;;;;18.92;41.65;101702.81;5079562;28;46210;-54
2022/03/15 08:41:54;;;;;;;;;6.00;4.50;;;;;18.94;41.53;101708.91;5079542;28;45454;-51
2022/03/15 08:44:21;;;;;;;;;6.75;5.25;;;;;18.96;41.59;101722.84;5079714;27;45256;-54
2022/03/15 08:46:47;;;;;;;;;7.25;5.25;;;;;18.97;41.82;101714.06;5078524;27;45458;-54
2022/03/15 08:49:14;;;;;;;;;6.50;4.50;;;;;18.99;41.44;101712.25;5079476;27;47107;-52
2022/03/15 08:51:40;;;;;;;;;4.00;3.25;;;;;18.99;41.61;101713.06;5079730;28;45915;-53
2022/03/15 08:54:05;;;;;;;;;5.25;4.00;;;;;19.01;41.35;101710.41;5079572;28;45822;-50
2022/03/15 08:56:31;;;;;;;;;8.50;6.00;;;;;19.02;41.52;101722.63;5079540;27;45800;-44
2022/03/15 08:58:56;;;;;;;;;3.00;3.00;;;;;19.03;41.28;101729.59;5079114;28;47093;-56
2022/03/15 09:01:22;;;;;;;;;2.75;2.75;;;;;19.04;41.41;101727.84;5079155;27;45492;-51
2022/03/15 09:03:47;;;;;;;;;3.75;3.75;;;;;19.04;41.37;101723.44;5079301;28;45365;-54
2022/03/15 09:06:13;;;;;;;;;4.25;4.25;;;;;19.03;41.55;101713.81;5079485;28;45378;-51
2022/03/15 09:08:38;;;;;;;;;4.00;4.00;;;;;19.04;41.26;101718.16;5079260;28;45779;-54
2022/03/15 09:11:03;;;;;;;;;5.25;3.00;;;;;19.04;41.44;101733.09;5078952;27;45448;-50
2022/03/15 09:13:29;;;;;;;;;5.50;4.25;;;;;19.03;41.44;101724.34;5079149;27;45333;-56
2022/03/15 09:15:54;;;;;;;;;4.00;3.00;;;;;19.04;41.63;101731.31;5078990;28;45418;-52
2022/03/15 09:18:20;;;;;;;;;5.25;5.25;;;;;19.02;41.17;101720.00;5078819;28;45344;-58
2022/03/15 09:20:46;;;;;;;;;5.00;4.25;;;;;19.02;41.99;101720.00;5078843;27;45797;-54
2022/03/15 09:23:12;;;;;;;;;4.50;4.50;;;;;19.07;41.38;101730.38;5079210;28;45458;-48
2022/03/15 09:25:37;;;;;;;;;6.00;6.00;;;;;19.07;41.69;101728.59;5079342;28;45194;-53
2022/03/15 09:28:04;;;;;;;;;5.50;4.00;;;;;19.08;41.08;101729.44;5078682;27;45444;-56
2022/03/15 09:30:30;;;;;;;;;3.50;3.25;;;;;19.08;41.12;101726.78;5077561;27;45883;-53
2022/03/15 09:32:57;;;;;;;;;5.00;4.75;;;;;19.09;41.05;101721.50;5078798;27;45431;-59
2022/03/15 09:35:23;;;;;;;;;6.00;6.00;;;;;19.08;41.21;101722.41;5079018;27;45492;-56
2022/03/15 09:37:49;;;;;;;;;4.50;4.50;;;;;19.09;41.22;101718.00;5078622;28;45491;-55
2022/03/15 09:40:22;;;;;;;;;4.00;4.00;;;;;19.08;41.32;101716.28;5078506;28;45766;-51
2022/03/15 09:42:49;;;;;;;;;3.00;3.00;;;;;19.08;41.31;101711.91;5078778;28;45448;-55
2022/03/15 09:45:20;;;;;;;;;6.00;4.00;;;;;19.09;41.01;101707.50;5077499;28;45406;-51
2022/03/15 09:47:52;;;;;;;;;4.00;4.00;;;;;19.09;41.04;101705.75;5078301;28;46176;-56
2022/03/15 09:50:20;;;;;;;;;5.25;4.00;;;;;19.09;41.18;101713.63;5078492;27;45803;-57
2022/03/15 09:52:45;;;;;;;;;4.00;4.00;;;;;19.08;41.04;101701.41;5078402;27;45384;-51
2022/03/15 09:55:11;;;;;;;;;6.00;5.00;;;;;19.10;40.98;101699.59;5078993;28;45527;-56
2022/03/15 09:57:38;;;;;;;;;4.00;4.00;;;;;19.09;41.08;101689.97;5078202;28;46125;-52
2022/03/15 10:00:04;;;;;;;;;3.00;3.00;;;;;19.09;41.27;101687.34;5077076;28;45763;-55
2022/03/15 10:02:30;;;;;;;;;5.00;5.00;;;;;19.11;41.03;101700.44;5078374;28;45310;-55
2022/03/15 10:04:55;;;;;;;;;4.50;3.75;;;;;19.10;41.45;101689.06;5078581;27;45451;-54
2022/03/15 10:07:21;;;;;;;;;5.00;4.75;;;;;19.10;41.12;101694.31;5078144;27;45355;-55
2022/03/15 10:09:47;;;;;;;;;4.00;4.00;;;;;19.10;41.41;101688.19;5077974;28;45327;-56
2022/03/15 10:12:12;;;;;;;;;4.25;4.25;;;;;19.09;40.96;101696.97;5078577;28;45279;-53
2022/03/15 10:14:48;;;;;;;;;5.25;5.25;;;;;19.08;41.07;101692.63;5078106;28;45552;-57
2022/03/15 10:17:15;;;;;;;;;7.50;6.50;;;;;19.07;41.49;101694.44;5078221;28;45296;-57
2022/03/15 10:19:54;;;;;;;;;4.25;4.00;;;;;19.07;40.99;101689.16;5076951;27;46291;-54
2022/03/15 10:22:25;;;;;;;;;4.75;4.75;;;;;19.08;41.43;101695.28;5076597;28;45407;-52
2022/03/15 10:24:51;;;;;;;;;5.00;5.00;;;;;19.07;41.11;101690.94;5078337;27;45374;-54
2022/03/15 10:27:17;;;;;;;;;3.50;3.00;;;;;19.08;41.20;101690.00;5077802;27;45340;-52
2022/03/15 10:29:43;;;;;;;;;5.00;5.00;;;;;19.09;41.19;101683.84;5078153;27;45464;-57
2022/03/15 10:32:09;;;;;;;;;5.00;5.00;;;;;19.09;41.17;101683.84;5077947;28;45386;-54
2022/03/15 10:34:36;;;;;;;;;6.25;5.00;;;;;19.09;41.45;101681.22;5078098;28;45292;-49
2022/03/15 10:37:02;;;;;;;;;4.00;4.00;;;;;19.09;41.34;101686.47;5077593;28;45304;-51
2022/03/15 10:39:28;;;;;;;;;5.25;4.25;;;;;19.10;41.28;101682.94;5077569;28;45813;-52
2022/03/15 10:42:00;;;;;;;;;4.75;3.25;;;;;19.10;41.24;101678.56;5077748;27;45338;-49
2022/03/15 10:44:36;;;;;;;;;6.50;4.75;;;;;19.12;41.61;101683.75;5076605;28;45548;-52
2022/03/15 10:47:08;;;;;;;;;3.50;3.00;;;;;19.15;41.64;101678.38;5076176;27;46284;-49
2022/03/15 10:49:50;;;;;;;;;5.00;3.00;;;;;19.15;41.45;101673.97;5076050;28;45468;-50
2022/03/15 10:52:28;;;;;;;;;4.25;4.00;;;;;19.21;41.63;101672.06;5077637;28;45387;-49
2022/03/15 10:54:53;;;;;;;;;5.00;5.00;;;;;19.23;41.53;101668.44;5077603;28;45427;-50
2022/03/15 10:57:19;;;;;;;;;4.50;4.50;;;;;19.33;41.55;101668.97;5076865;28;45383;-47
2022/03/15 10:59:44;;;;;;;;;4.50;4.50;;;;;19.39;41.04;101667.91;5077661;28;45283;-51
2022/03/15 11:02:13;;;;;;;;;4.00;4.00;;;;;19.45;41.34;101665.91;5077399;28;45290;-48
2022/03/15 11:04:46;;;;;;;;;5.25;4.25;;;;;19.52;41.37;101668.28;5077568;28;45434;-48
2022/03/15 11:07:13;;;;;;;;;6.00;4.00;;;;;19.56;41.19;101662.00;5077518;28;46366;-47
2022/03/15 11:09:38;;;;;;;;;5.50;4.00;;;;;19.63;41.11;101666.09;5077331;28;45765;-54
2022/03/15 11:12:07;;;;;;;;;5.50;4.25;;;;;19.68;40.96;101669.41;5077270;27;45450;-49
2022/03/15 11:14:45;;;;;;;;;5.75;4.75;;;;;19.72;40.80;101663.13;5077199;28;45318;-53
2022/03/15 11:17:16;;;;;;;;;6.00;4.25;;;;;19.78;40.95;101654.13;5059262;28;46298;-50
2022/03/15 11:19:56;;;;;;;;;5.25;4.00;;;;;19.83;41.16;101657.44;5077137;28;45477;-52
2022/03/15 11:22:34;;;;;;;;;6.25;5.25;;;;;19.89;40.62;101653.75;5077114;27;45229;-48